Alvin, Illinois
Current Conditions -  °F | °C
As of 8:35 AM on Tuesday 21 Oct 2014 (Local Time) from KDNV Reporting Station
Scattered Clouds Scattered Clouds  
Wind Chill: 46°   Ceiling: Unl
Heat Index: 49°   Visibility: 10mi
Dew Point: 45°   Wind: 9mph
Humidity: 84%   Direction: 350°N
Pressure: 30.08"   Gusts: NA
Location:  40.31°N, 87.61°W
Report Text: KDNV 211335Z AUTO 35008KT 10SM SCT048 10/07 A3008 RMK AO2 T00970071
Loading
Personal Weather Stations






























Interactive Weather Map New forecast layout! Learn more

10-Day Weather Forecast

Advertisements
Track Severe Weather on mobile